Disclaimer

Please do not use the information listed here in-flight or in-navigation, as they are not provided to us by the airports but are provided by volunteers, so they might be outdated.

Search


Regions


Airport information page

Radio informations:
Tower (TWR) - 118.1 MHz
VFR ADVSY SVC - 121.2 MHz
Ground (GND) - 121.9 MHz
Clearance delivery - 129.8 MHz
PANAMA APP - 119.7 MHz
PANAMA CON - 133.3 MHz

Airport informations:
Latitude: 09° 04' 16.91" N
Longitude: 079° 23' 00.43" W
Elevation: 135 feet - 41 meters
Operating hours: N/A
Operating agency: Civil government, landing fees and diplomatic clearance may be required
Timezone: UTC-5
Fuel: Jet A1, without icing nhibitor.

100/130 MIL Spec, low lead, aviation gasoline (BLUE)

Runway information:
03R/21L - 10006 x 148 feet< - >3050 x 45 meters
03L/21R - 8800 x 148 feet< - >2682 x 45 meters

Recent METARs:
MPTO 191617Z 13004KT 7000 -RA SCT006 BKN014CB 28/26 Q1010 RWY WET TEMPO 4000 TSRA
MPTO 191700Z 09006G22KT 4000 TSRA SCT006 BKN013CB 27/26 Q1010 RWY WET NOSIG
MPTO 191700Z 09006G22KT 4000 TSRA SCT006 BKN013CB 27/26 Q1010 RWY WET NOSIG

Airport on the map: